sensor_id;sensor_type;location;lat;lon;timestamp;pressure;altitude;pressure_sealevel;temperature;humidity
70458;BME280;57919;56.194;95.716;2023-08-31T00:08:34;98835.88;;;19.13;80.34
70458;BME280;57919;56.194;95.716;2023-08-31T00:18:36;98826.91;;;19.26;80.42
70458;BME280;57919;56.194;95.716;2023-08-31T00:28:38;98815.13;;;19.32;80.48
70458;BME280;57919;56.194;95.716;2023-08-31T00:38:41;98820.00;;;19.36;80.41
70458;BME280;57919;56.194;95.716;2023-08-31T00:48:44;98805.69;;;19.41;80.73
70458;BME280;57919;56.194;95.716;2023-08-31T00:58:46;98809.59;;;19.53;80.18
70458;BME280;57919;56.194;95.716;2023-08-31T01:08:55;98780.19;;;19.47;80.20
70458;BME280;57919;56.194;95.716;2023-08-31T01:19:02;98794.88;;;19.67;80.09
70458;BME280;57919;56.194;95.716;2023-08-31T01:29:05;98794.09;;;19.80;80.04
70458;BME280;57919;56.194;95.716;2023-08-31T01:39:41;98790.13;;;19.89;79.84
70458;BME280;57919;56.194;95.716;2023-08-31T01:49:50;98773.69;;;20.03;79.29
70458;BME280;57919;56.194;95.716;2023-08-31T01:59:53;98769.94;;;20.30;78.97
70458;BME280;57919;56.194;95.716;2023-08-31T02:09:55;98761.13;;;20.48;78.77
70458;BME280;57919;56.194;95.716;2023-08-31T02:19:57;98755.00;;;20.92;77.26
70458;BME280;57919;56.194;95.716;2023-08-31T02:30:00;98745.47;;;21.08;76.67
70458;BME280;57919;56.194;95.716;2023-08-31T02:40:05;98746.44;;;21.46;75.66
70458;BME280;57919;56.194;95.716;2023-08-31T02:50:10;98740.72;;;21.54;75.22
70458;BME280;57919;56.194;95.716;2023-08-31T03:00:12;98741.03;;;21.78;74.24
70458;BME280;57919;56.194;95.716;2023-08-31T03:10:14;98736.94;;;21.93;73.80
70458;BME280;57919;56.194;95.716;2023-08-31T03:20:16;98739.59;;;22.13;72.86
70458;BME280;57919;56.194;95.716;2023-08-31T03:30:18;98734.34;;;22.05;72.81
70458;BME280;57919;56.194;95.716;2023-08-31T03:40:20;98732.41;;;22.12;72.36
70458;BME280;57919;56.194;95.716;2023-08-31T03:50:23;98751.69;;;22.12;72.76
70458;BME280;57919;56.194;95.716;2023-08-31T04:00:25;98734.19;;;21.93;72.57
70458;BME280;57919;56.194;95.716;2023-08-31T04:10:28;98736.00;;;22.13;72.70
70458;BME280;57919;56.194;95.716;2023-08-31T04:20:33;98742.69;;;22.30;72.26
70458;BME280;57919;56.194;95.716;2023-08-31T04:30:35;98733.78;;;22.28;71.95
70458;BME280;57919;56.194;95.716;2023-08-31T04:40:37;98728.91;;;22.30;72.14
70458;BME280;57919;56.194;95.716;2023-08-31T04:50:39;98728.00;;;22.36;72.11
70458;BME280;57919;56.194;95.716;2023-08-31T05:00:41;98728.56;;;22.45;72.06
70458;BME280;57919;56.194;95.716;2023-08-31T05:10:45;98719.31;;;22.64;71.24
70458;BME280;57919;56.194;95.716;2023-08-31T05:20:49;98733.72;;;22.66;71.00
70458;BME280;57919;56.194;95.716;2023-08-31T05:30:52;98728.47;;;22.58;71.40
70458;BME280;57919;56.194;95.716;2023-08-31T05:40:54;98731.38;;;22.38;71.82
70458;BME280;57919;56.194;95.716;2023-08-31T05:50:56;98716.13;;;22.36;72.27
70458;BME280;57919;56.194;95.716;2023-08-31T06:00:58;98713.72;;;22.46;71.88
70458;BME280;57919;56.194;95.716;2023-08-31T06:11:01;98707.81;;;22.67;71.71
70458;BME280;57919;56.194;95.716;2023-08-31T06:21:03;98713.19;;;22.87;71.65
70458;BME280;57919;56.194;95.716;2023-08-31T06:31:05;98722.09;;;22.89;71.79
70458;BME280;57919;56.194;95.716;2023-08-31T06:41:07;98707.47;;;23.07;71.36
70458;BME280;57919;56.194;95.716;2023-08-31T06:51:10;98688.84;;;23.39;70.02
70458;BME280;57919;56.194;95.716;2023-08-31T07:01:13;98676.28;;;23.61;69.52
70458;BME280;57919;56.194;95.716;2023-08-31T07:11:14;98670.78;;;23.91;68.36
70458;BME280;57919;56.194;95.716;2023-08-31T07:21:17;98667.91;;;23.68;68.71
70458;BME280;57919;56.194;95.716;2023-08-31T07:31:18;98663.00;;;23.70;68.92
70458;BME280;57919;56.194;95.716;2023-08-31T07:41:21;98663.84;;;23.70;68.85
70458;BME280;57919;56.194;95.716;2023-08-31T07:51:23;98645.34;;;23.71;68.89
70458;BME280;57919;56.194;95.716;2023-08-31T08:01:27;98658.88;;;23.42;69.63
70458;BME280;57919;56.194;95.716;2023-08-31T08:11:29;98656.13;;;23.24;70.61
70458;BME280;57919;56.194;95.716;2023-08-31T08:21:31;98648.06;;;23.04;71.14
70458;BME280;57919;56.194;95.716;2023-08-31T08:31:32;98652.28;;;23.07;71.81
70458;BME280;57919;56.194;95.716;2023-08-31T08:41:35;98652.91;;;23.09;71.51
70458;BME280;57919;56.194;95.716;2023-08-31T08:51:38;98657.56;;;22.90;72.89
70458;BME280;57919;56.194;95.716;2023-08-31T09:01:41;98670.97;;;22.86;72.86
70458;BME280;57919;56.194;95.716;2023-08-31T09:11:44;98662.53;;;22.81;72.94
70458;BME280;57919;56.194;95.716;2023-08-31T09:21:51;98650.91;;;22.98;73.10
70458;BME280;57919;56.194;95.716;2023-08-31T09:31:53;98656.28;;;23.29;72.42
70458;BME280;57919;56.194;95.716;2023-08-31T09:41:55;98658.19;;;23.65;71.54
70458;BME280;57919;56.194;95.716;2023-08-31T09:51:59;98656.94;;;23.43;71.70
70458;BME280;57919;56.194;95.716;2023-08-31T10:02:05;98635.72;;;23.07;72.44
70458;BME280;57919;56.194;95.716;2023-08-31T10:12:08;98652.06;;;23.27;72.43
70458;BME280;57919;56.194;95.716;2023-08-31T10:22:10;98656.19;;;23.36;72.16
70458;BME280;57919;56.194;95.716;2023-08-31T10:32:22;98656.72;;;23.26;72.46
70458;BME280;57919;56.194;95.716;2023-08-31T10:42:24;98645.53;;;23.03;73.36
70458;BME280;57919;56.194;95.716;2023-08-31T10:52:26;98668.31;;;22.98;73.63
70458;BME280;57919;56.194;95.716;2023-08-31T11:12:44;98681.81;;;22.56;75.44
70458;BME280;57919;56.194;95.716;2023-08-31T11:22:48;98690.44;;;22.42;76.10
70458;BME280;57919;56.194;95.716;2023-08-31T11:32:56;98683.06;;;22.36;76.26
70458;BME280;57919;56.194;95.716;2023-08-31T11:42:59;98678.00;;;22.33;76.46
70458;BME280;57919;56.194;95.716;2023-08-31T11:53:05;98689.28;;;22.24;76.75
70458;BME280;57919;56.194;95.716;2023-08-31T12:03:08;98688.72;;;22.16;77.10
70458;BME280;57919;56.194;95.716;2023-08-31T12:13:11;98694.72;;;22.06;78.33
70458;BME280;57919;56.194;95.716;2023-08-31T12:23:14;98689.25;;;21.93;78.33
70458;BME280;57919;56.194;95.716;2023-08-31T12:33:17;98691.28;;;21.73;79.80
70458;BME280;57919;56.194;95.716;2023-08-31T12:43:19;98690.91;;;21.63;80.47
70458;BME280;57919;56.194;95.716;2023-08-31T12:53:22;98697.69;;;21.60;80.62
70458;BME280;57919;56.194;95.716;2023-08-31T13:03:25;98706.41;;;21.57;80.55
70458;BME280;57919;56.194;95.716;2023-08-31T13:13:27;98705.56;;;21.56;80.75
70458;BME280;57919;56.194;95.716;2023-08-31T13:23:29;98704.06;;;21.60;80.67
70458;BME280;57919;56.194;95.716;2023-08-31T13:33:31;98694.31;;;21.58;80.78
70458;BME280;57919;56.194;95.716;2023-08-31T13:43:33;98701.72;;;21.57;80.71
70458;BME280;57919;56.194;95.716;2023-08-31T13:53:35;98684.81;;;21.54;80.61
70458;BME280;57919;56.194;95.716;2023-08-31T14:03:37;98696.66;;;21.54;80.84
70458;BME280;57919;56.194;95.716;2023-08-31T14:13:38;98683.09;;;21.59;80.70
70458;BME280;57919;56.194;95.716;2023-08-31T14:23:41;98671.50;;;21.51;80.31
70458;BME280;57919;56.194;95.716;2023-08-31T14:33:43;98670.88;;;21.49;80.75
70458;BME280;57919;56.194;95.716;2023-08-31T14:43:45;98676.38;;;21.49;80.83
70458;BME280;57919;56.194;95.716;2023-08-31T14:53:47;98664.94;;;21.45;81.24
70458;BME280;57919;56.194;95.716;2023-08-31T15:03:49;98648.50;;;21.32;81.58
70458;BME280;57919;56.194;95.716;2023-08-31T15:13:51;98672.63;;;21.30;81.53
70458;BME280;57919;56.194;95.716;2023-08-31T15:23:54;98664.59;;;21.28;81.88
70458;BME280;57919;56.194;95.716;2023-08-31T15:33:57;98658.25;;;21.21;82.30
70458;BME280;57919;56.194;95.716;2023-08-31T15:43:58;98662.06;;;21.14;82.54
70458;BME280;57919;56.194;95.716;2023-08-31T15:54:00;98646.66;;;21.06;82.95
70458;BME280;57919;56.194;95.716;2023-08-31T16:04:06;98652.38;;;21.05;83.07
70458;BME280;57919;56.194;95.716;2023-08-31T16:14:08;98649.00;;;21.03;83.48
70458;BME280;57919;56.194;95.716;2023-08-31T16:24:10;98654.72;;;21.01;83.95
70458;BME280;57919;56.194;95.716;2023-08-31T16:34:12;98636.94;;;21.04;83.76
70458;BME280;57919;56.194;95.716;2023-08-31T16:44:14;98644.13;;;21.05;83.45
70458;BME280;57919;56.194;95.716;2023-08-31T16:54:16;98627.91;;;20.83;84.89
70458;BME280;57919;56.194;95.716;2023-08-31T17:04:18;98634.69;;;20.68;85.95
70458;BME280;57919;56.194;95.716;2023-08-31T17:14:20;98650.34;;;20.67;85.82
70458;BME280;57919;56.194;95.716;2023-08-31T17:24:24;98652.47;;;20.52;86.44
70458;BME280;57919;56.194;95.716;2023-08-31T17:34:26;98642.75;;;20.36;86.76
70458;BME280;57919;56.194;95.716;2023-08-31T17:44:29;98637.44;;;20.35;86.61
70458;BME280;57919;56.194;95.716;2023-08-31T17:54:31;98637.03;;;20.24;86.28
70458;BME280;57919;56.194;95.716;2023-08-31T18:04:36;98634.50;;;20.23;86.60
70458;BME280;57919;56.194;95.716;2023-08-31T18:14:38;98625.41;;;20.16;86.68
70458;BME280;57919;56.194;95.716;2023-08-31T18:24:40;98625.84;;;20.06;87.04
70458;BME280;57919;56.194;95.716;2023-08-31T18:34:42;98631.75;;;20.03;87.27
70458;BME280;57919;56.194;95.716;2023-08-31T18:44:50;98618.22;;;20.02;87.33
70458;BME280;57919;56.194;95.716;2023-08-31T18:54:52;98626.03;;;20.11;87.32
70458;BME280;57919;56.194;95.716;2023-08-31T19:04:54;98623.28;;;20.05;87.51
70458;BME280;57919;56.194;95.716;2023-08-31T19:14:56;98620.13;;;20.01;87.60
70458;BME280;57919;56.194;95.716;2023-08-31T19:24:58;98633.63;;;19.96;87.91
70458;BME280;57919;56.194;95.716;2023-08-31T19:35:00;98636.19;;;19.97;87.97
70458;BME280;57919;56.194;95.716;2023-08-31T19:45:03;98635.75;;;19.94;88.07
70458;BME280;57919;56.194;95.716;2023-08-31T19:55:05;98632.78;;;19.82;88.85
70458;BME280;57919;56.194;95.716;2023-08-31T20:05:07;98620.31;;;19.73;89.84
70458;BME280;57919;56.194;95.716;2023-08-31T20:15:09;98631.94;;;19.82;89.07
70458;BME280;57919;56.194;95.716;2023-08-31T20:25:11;98632.75;;;19.69;89.32
70458;BME280;57919;56.194;95.716;2023-08-31T20:35:16;98633.81;;;19.75;89.38
70458;BME280;57919;56.194;95.716;2023-08-31T20:45:18;98624.53;;;19.76;89.16
70458;BME280;57919;56.194;95.716;2023-08-31T20:55:23;98618.00;;;19.77;89.20
70458;BME280;57919;56.194;95.716;2023-08-31T21:05:25;98617.34;;;19.75;89.55
